Latest Weather Observations for Melbourne

IDV60801

Issued at 9:35 pm EDT Friday 31 October 2014 (issued every 30 minutes, with the page automatically refreshed every 10 minutes)

About weather observations | Map of weather stations | Latest weather observations for VIC | Other Formats
Station Details ID: 086071 Name: MELBOURNE REGIONAL OFFICE Lat: -37.81 Lon: 144.97 Height: 31.15 m
Data from the previous 72 hours. | See also: Recent months at Melbourne

* Apparent temperature (App Temp) for Melbourne is calculated using temperature observations collected at Melbourne and wind observations collected at Melbourne (Olympic Park), as wind observations are not currently provided for Melbourne.

Date/Time
EDT
Temp
°C
App
Temp
°C
Dew
Point
Rel
Hum
%
Delta-T
°C
Wind Press
QNH
hPa
Press
MSL
hPa
Rain
since 9 am
mm
Dir
 
Spd
km/h
Gust
km/h
Spd
kts
Gust
kts
31/09:30pm 28.2 24.7 3.4 20 12.5 N 11 - 6 - 997.1 - 0.0
31/09:00pm 29.0 25.0 3.0 19 13.1 N 13 - 7 - 997.3 997.3 0.0
31/08:30pm 29.8 26.2 2.9 18 13.5 N 11 - 6 - 997.5 - 0.0
31/08:00pm 30.6 26.8 2.0 16 14.2 N 11 - 6 - 997.7 - 0.0
31/07:30pm 31.5 27.8 0.1 13 15.2 N 9 - 5 - 998.0 - 0.0
31/07:00pm 31.5 27.7 1.7 15 14.8 N 11 - 6 - 998.3 - 0.0
31/06:30pm 31.7 27.6 2.2 15 14.8 N 13 - 7 - 998.9 - 0.0
31/06:00pm 31.7 26.4 -0.8 12 15.6 NNW 17 - 9 - 999.5 999.5 0.0
31/05:30pm 32.4 26.5 1.4 14 15.4 N 22 - 12 - 999.8 - 0.0
31/05:00pm 32.7 25.9 0.5 13 15.8 N 26 - 14 - 1000.2 - 0.0
31/04:30pm 32.2 25.7 0.5 13 15.5 NNW 24 - 13 - 1000.6 - 0.0
31/04:00pm 31.6 25.6 1.1 14 15.0 NNW 22 - 12 - 1001.0 - 0.0
31/03:30pm 31.2 25.7 1.7 15 14.6 NNW 20 - 11 - 1001.8 - 0.0
31/03:00pm 30.4 23.9 0.6 14 14.5 N 24 - 13 - 1002.5 1002.5 0.0
31/02:30pm 29.4 23.4 3.3 19 13.2 N 24 - 13 - 1003.1 - 0.0
31/02:00pm 28.4 21.8 1.9 18 12.9 N 26 - 14 - 1003.8 - 0.0
31/01:30pm 27.4 21.2 2.0 19 12.3 N 24 - 13 - 1004.3 - 0.0
31/01:00pm 27.1 21.0 2.5 20 12.0 N 24 - 13 - 1005.1 - 0.0
31/12:30pm 26.2 21.1 4.1 24 11.1 N 20 - 11 - 1006.0 - 0.0
31/12:00pm 25.8 20.9 5.3 26 10.5 N 20 - 11 - 1006.6 1006.6 0.0
31/11:30am 24.4 19.7 5.3 29 9.7 N 19 - 10 - 1007.3 - 0.0
31/11:00am 24.2 19.6 5.8 30 9.4 N 19 - 10 - 1007.8 - 0.0
31/10:30am 19.7 18.2 10.5 55 5.0 NE 9 - 5 - 1008.2 - 0.0
31/10:00am 18.1 17.2 10.5 61 4.1 ENE 6 - 3 - 1008.8 - 0.0
31/09:30am 16.5 15.1 9.6 63 3.6 NE 7 - 4 - 1009.0 - 0.0
31/09:00am 15.2 13.3 9.2 67 3.1 NE 9 - 5 - 1009.5 1009.5 0.2
31/08:30am 14.2 12.4 9.3 72 2.5 NE 9 - 5 - 1009.7 - 0.0
31/08:00am 12.4 10.8 8.8 79 1.8 NNE 7 - 4 - 1009.9 - 0.0
31/07:30am 11.9 9.8 8.3 78 1.8 NNE 9 - 5 - 1010.2 - 0.0
31/07:00am 11.0 8.5 8.4 84 1.3 NNE 11 - 6 - 1010.5 - 0.0
31/06:30am 10.9 9.3 8.7 86 1.1 NE 7 - 4 - 1010.6 - 0.0
31/06:00am 11.1 9.5 8.9 86 1.1 NE 7 - 4 - 1010.6 1010.6 0.0
31/05:30am 11.1 9.5 8.9 86 1.1 NNE 7 - 4 - 1010.5 - 0.0
31/05:00am 11.3 9.7 8.9 85 1.2 NNE 7 - 4 - 1010.4 - 0.0
31/04:30am 11.6 9.7 9.0 84 1.3 NNE 9 - 5 - 1011.0 - 0.0
31/04:00am 12.0 11.7 8.8 81 1.6 CALM 0 - 0 - 1010.9 - 0.0
31/03:30am 12.2 11.9 8.6 78 1.8 CALM 0 - 0 - 1011.3 - 0.0
31/03:00am 12.4 12.1 8.8 79 1.8 CALM 0 - 0 - 1011.6 1011.5 0.0
31/02:30am 12.7 12.5 9.1 79 1.8 CALM 0 - 0 - 1012.1 - 0.0
31/02:00am 13.5 13.3 9.2 75 2.2 CALM 0 - 0 - 1012.3 - 0.0
31/01:30am 13.5 13.4 9.6 77 2.0 CALM 0 - 0 - 1013.2 - 0.0
31/01:00am 13.8 13.8 9.7 76 2.1 CALM 0 - 0 - 1013.8 - 0.0
31/12:30am 13.9 13.9 9.8 76 2.1 CALM 0 - 0 - 1013.7 - 0.0
31/12:00am 14.2 14.1 9.5 73 2.4 SE 0 - 0 - 1013.9 1013.8 0.0
 
Date/Time
EDT
Temp
°C
App
Temp
°C
Dew
Point
Rel
Hum
%
Delta-T
°C
Wind Press
QNH
hPa
Press
MSL
hPa
Rain
since 9 am
mm
Dir
 
Spd
km/h
Gust
km/h
Spd
kts
Gust
kts
30/11:30pm 14.4 13.1 9.3 71 2.6 S 6 - 3 - 1013.9 - 0.0
30/11:00pm 14.7 12.9 9.5 71 2.7 SSE 9 - 5 - 1013.9 - 0.0
30/10:30pm 14.9 13.5 9.7 71 2.7 SSE 7 - 4 - 1014.0 - 0.0
30/10:00pm 15.2 14.0 9.6 69 2.9 S 6 - 3 - 1013.8 - 0.0
30/09:30pm 15.6 13.5 9.6 67 3.1 SSE 11 - 6 - 1013.5 - 0.0
30/09:00pm 16.2 13.1 9.0 62 3.7 SSE 15 - 8 - 1013.3 1013.2 0.0
30/08:30pm 16.6 15.7 11.4 71 2.8 SSW 7 - 4 - 1013.0 - 0.0
30/08:00pm 16.9 15.1 10.9 67 3.2 SSW 11 - 6 - 1013.0 - 0.0
30/07:30pm 18.5 16.5 10.1 58 4.5 SSW 11 - 6 - 1012.7 - 0.0
30/07:00pm 19.0 16.5 8.4 50 5.5 SSW 11 - 6 - 1012.7 - 0.0
30/06:30pm 19.6 17.6 8.7 49 5.7 SSW 9 - 5 - 1012.5 - 0.0
30/06:00pm 20.9 18.9 8.5 45 6.5 SSE 9 - 5 - 1012.5 1012.4 0.0
30/05:30pm 21.5 18.8 7.4 40 7.3 S 11 - 6 - 1012.4 - 0.0
30/05:00pm 21.8 19.0 7.0 38 7.6 S 11 - 6 - 1012.5 - 0.0
30/04:30pm 21.7 18.9 7.1 39 7.5 SSW 11 - 6 - 1012.6 - 0.0
30/04:00pm 21.8 18.9 8.1 41 7.2 SSW 13 - 7 - 1012.6 - 0.0
30/03:30pm 21.5 17.9 6.8 38 7.5 SSW 15 - 8 - 1012.6 - 0.0
30/03:00pm 21.8 18.7 7.3 39 7.5 SSW 13 - 7 - 1012.9 1012.8 0.0
30/02:30pm 20.6 17.7 6.5 40 7.1 S 11 - 6 - 1013.2 - 0.0
30/02:00pm 19.3 16.1 7.0 44 6.2 S 13 - 7 - 1013.7 - 0.0
30/01:30pm 19.1 16.0 7.3 46 6.0 SSW 13 - 7 - 1013.9 - 0.0
30/01:00pm 19.5 17.1 6.8 43 6.4 S 9 - 5 - 1014.0 - 0.0
30/12:30pm 20.3 18.1 7.7 44 6.5 S 9 - 5 - 1014.3 - 0.0
30/12:00pm 19.9 17.0 8.1 46 6.1 SSW 13 - 7 - 1014.7 1014.6 0.0
30/11:30am 18.2 16.0 7.8 50 5.3 S 9 - 5 - 1015.1 - 0.0
30/11:00am 17.4 14.4 7.5 52 5.0 S 13 - 7 - 1015.4 - 0.0
30/10:30am 16.6 14.8 7.9 56 4.4 SW 7 - 4 - 1015.8 - 0.0
30/10:00am 15.9 14.0 7.5 57 4.2 SSW 7 - 4 - 1016.0 - 0.0
30/09:30am 16.0 14.2 8.1 59 4.0 WSW 7 - 4 - 1015.7 - 0.0
30/09:00am 16.1 14.3 8.0 58 4.1 WSW 7 - 4 - 1015.8 1015.7 0.0
30/08:30am 15.3 12.9 7.2 58 4.0 WSW 9 - 5 - 1015.7 - 0.0
30/08:00am 15.4 13.6 7.8 60 3.8 WSW 7 - 4 - 1015.7 - 0.0
30/07:30am 14.9 13.5 9.7 71 2.7 SW 7 - 4 - 1015.2 - 0.0
30/07:00am 14.7 14.6 10.7 77 2.1 E 2 - 1 - 1014.9 - 0.0
30/06:30am 14.7 13.8 10.7 77 2.1 NE 6 - 3 - 1014.3 - 0.0
30/06:00am 14.7 14.6 10.7 77 2.1 SSW 2 - 1 - 1014.5 1014.4 0.0
30/05:30am 14.7 14.6 10.7 77 2.1 SSW 2 - 1 - 1014.7 - 0.0
30/05:00am 14.7 14.9 10.7 77 2.1 CALM 0 - 0 - 1014.6 - 0.0
30/04:30am 14.4 14.7 10.8 79 1.9 CALM 0 - 0 - 1014.2 - 0.0
30/04:00am 14.3 14.5 10.5 78 2.0 CALM 0 - 0 - 1014.3 - 0.0
30/03:30am 14.5 14.3 10.3 76 2.2 N 2 - 1 - 1014.6 - 0.0
30/03:00am 14.7 14.4 10.1 74 2.4 N 2 - 1 - 1014.7 1014.6 0.0
30/02:30am 14.6 14.3 10.0 74 2.4 NNE 2 - 1 - 1015.0 - 0.0
30/02:00am 14.6 14.8 10.4 76 2.2 CALM 0 - 0 - 1015.4 - 0.0
30/01:30am 14.6 14.4 10.4 76 2.2 NNE 2 - 1 - 1015.8 - 0.0
30/01:00am 14.6 14.7 10.2 75 2.3 CALM 0 - 0 - 1016.0 - 0.0
30/12:30am 14.4 14.5 10.2 76 2.2 CALM 0 - 0 - 1016.3 - 0.0
30/12:00am 13.9 13.9 9.8 76 2.1 CALM 0 - 0 - 1016.4 1016.3 0.0
 
Date/Time
EDT
Temp
°C
App
Temp
°C
Dew
Point
Rel
Hum
%
Delta-T
°C
Wind Press
QNH
hPa
Press
MSL
hPa
Rain
since 9 am
mm
Dir
 
Spd
km/h
Gust
km/h
Spd
kts
Gust
kts
29/11:30pm 14.3 14.2 9.6 73 2.4 CALM 0 - 0 - 1016.2 - 0.0
29/11:00pm 14.9 14.0 9.2 68 2.9 SE 4 - 2 - 1016.3 - 0.0
29/10:30pm 15.2 14.0 9.4 68 3.0 SE 6 - 3 - 1016.4 - 0.0
29/10:00pm 16.2 14.8 9.7 65 3.4 SSE 7 - 4 - 1016.3 - 0.0
29/09:30pm 16.6 15.4 9.7 63 3.6 S 6 - 3 - 1016.0 - 0.0
29/09:00pm 16.8 15.7 10.0 64 3.6 S 6 - 3 - 1015.8 1015.7 0.0
29/08:30pm 17.1 15.5 10.1 63 3.7 S 9 - 5 - 1015.6 - 0.0
29/08:00pm 17.3 14.8 9.7 61 4.0 S 13 - 7 - 1015.1 - 0.0
29/07:30pm 18.0 15.7 9.0 55 4.7 S 11 - 6 - 1014.7 - 0.0
29/07:00pm 18.4 15.7 8.8 53 5.0 S 13 - 7 - 1014.4 - 0.0
29/06:30pm 19.6 17.0 9.2 51 5.5 SSW 13 - 7 - 1014.2 - 0.0
29/06:00pm 22.5 20.3 7.8 38 7.7 S 9 - 5 - 1014.0 1013.9 0.0
29/05:30pm 22.4 20.1 7.6 38 7.7 S 9 - 5 - 1014.0 - 0.0
29/05:00pm 22.1 19.2 8.0 40 7.4 SSW 13 - 7 - 1014.1 - 0.0
29/04:30pm 22.4 20.1 7.4 38 7.8 SSW 9 - 5 - 1014.1 - 0.0
29/04:00pm 21.9 19.5 7.1 38 7.6 S 9 - 5 - 1014.3 - 0.0
29/03:30pm 22.1 19.4 7.2 38 7.7 SSW 11 - 6 - 1014.6 - 0.0
29/03:00pm 21.4 19.2 6.1 37 7.7 SW 7 - 4 - 1015.2 1015.1 0.0
29/02:30pm 20.5 18.2 5.5 37 7.4 SW 7 - 4 - 1015.9 - 0.0
29/02:00pm 20.3 18.2 5.8 38 7.2 WNW 6 - 3 - 1016.4 - 0.0
29/01:30pm 18.9 16.1 5.1 40 6.7 SW 9 - 5 - 1016.9 - 0.0
29/01:00pm 18.7 14.8 5.3 41 6.5 NNW 15 - 8 - 1017.3 - 0.0
29/12:30pm 18.5 15.9 6.1 44 6.1 WSW 9 - 5 - 1017.7 - 0.0
29/12:00pm 16.8 14.1 5.6 47 5.4 W 9 - 5 - 1018.2 1018.2 0.0
29/11:30am 16.1 13.0 5.4 49 5.1 WNW 11 - 6 - 1018.5 - 0.0
29/11:00am 15.5 12.5 5.9 52 4.6 NNW 11 - 6 - 1018.7 - 0.0
29/10:30am 14.9 11.8 5.4 53 4.5 NW 11 - 6 - 1019.0 - 0.0
29/10:00am 14.7 12.0 5.6 54 4.3 NW 9 - 5 - 1019.1 - 0.0
29/09:30am 13.9 11.5 7.1 63 3.3 W 9 - 5 - 1019.1 - 0.0
29/09:00am 13.7 11.6 6.6 62 3.4 WNW 7 - 4 - 1018.9 1018.9 0.6
29/08:30am 13.2 11.4 7.2 67 2.9 NW 6 - 3 - 1018.9 - 0.6
29/08:00am 12.8 11.0 7.2 69 2.7 W 6 - 3 - 1018.8 - 0.6
29/07:30am 12.0 9.6 7.2 72 2.3 NNW 9 - 5 - 1018.7 - 0.6
29/07:00am 11.7 9.4 7.6 76 2.0 NNW 9 - 5 - 1018.6 - 0.6
29/06:30am 11.3 9.1 7.8 79 1.7 NNW 9 - 5 - 1018.2 - 0.6
29/06:00am 11.0 9.8 7.9 81 1.5 WNW 4 - 2 - 1017.9 1017.9 0.6
29/05:30am 11.1 10.2 7.8 80 1.6 WNW 2 - 1 - 1017.6 - 0.6
29/05:00am 11.0 9.4 8.1 82 1.4 W 6 - 3 - 1017.3 - 0.6
29/04:30am 11.2 10.1 8.3 82 1.4 WNW 4 - 2 - 1017.3 - 0.6
29/04:00am 11.5 9.8 8.2 80 1.6 NW 7 - 4 - 1017.2 - 0.6
29/03:30am 11.8 10.3 8.3 79 1.7 WNW 6 - 3 - 1017.2 - 0.6
29/03:00am 12.2 10.0 7.9 75 2.1 W 9 - 5 - 1017.2 1017.2 0.6
29/02:30am 12.8 10.4 7.2 69 2.7 WSW 9 - 5 - 1017.0 - 0.6
29/02:00am 13.4 10.8 6.3 62 3.4 W 9 - 5 - 1017.0 - 0.6
29/01:30am 13.5 11.3 6.1 61 3.5 W 7 - 4 - 1017.3 - 0.6
29/01:00am 13.4 11.2 5.5 59 3.7 W 6 - 3 - 1017.6 - 0.6
29/12:30am 13.6 11.4 5.5 58 3.8 WSW 6 - 3 - 1017.6 - 0.6
29/12:00am 13.6 11.4 5.5 58 3.8 SW 6 - 3 - 1017.6 1017.6 0.6
 
Date/Time
EDT
Temp
°C
App
Temp
°C
Dew
Point
Rel
Hum
%
Delta-T
°C
Wind Press
QNH
hPa
Press
MSL
hPa
Rain
since 9 am
mm
Dir
 
Spd
km/h
Gust
km/h
Spd
kts
Gust
kts
28/11:30pm 13.7 11.0 5.4 57 3.9 W 9 - 5 - 1017.5 - 0.6
28/11:00pm 13.9 10.9 6.1 59 3.7 W 11 - 6 - 1017.6 - 0.6
28/10:30pm 14.1 11.9 6.4 60 3.7 SW 7 - 4 - 1017.4 - 0.6
28/10:00pm 14.3 11.4 6.4 59 3.8 SW 11 - 6 - 1017.4 - 0.6

Other Formats:

Comma delimited format used in spreadsheet applications
http://www.bom.gov.au/fwo/IDV60801/IDV60801.94868.axf

JavaScript Object Notation format (JSON) in row-major order
http://www.bom.gov.au/fwo/IDV60801/IDV60801.94868.json